sensor_id;sensor_type;location;lat;lon;timestamp;temperature;humidity
31769;DHT22;18342;52.132;21.048;2022-09-29T19:44:15;10.50;99.90
31769;DHT22;18342;52.132;21.048;2022-09-29T19:46:41;10.30;99.90
31769;DHT22;18342;52.132;21.048;2022-09-29T19:49:07;10.10;99.90
31769;DHT22;18342;52.132;21.048;2022-09-29T19:51:33;10.00;99.90
31769;DHT22;18342;52.132;21.048;2022-09-29T19:54:14;10.00;99.90
31769;DHT22;18342;52.132;21.048;2022-09-29T19:56:53;10.00;99.90
31769;DHT22;18342;52.132;21.048;2022-09-29T19:59:22;9.90;99.90
31769;DHT22;18342;52.132;21.048;2022-09-29T20:01:49;9.90;99.90
31769;DHT22;18342;52.132;21.048;2022-09-29T20:04:17;9.90;99.90
31769;DHT22;18342;52.132;21.048;2022-09-29T20:06:43;9.90;99.90
31769;DHT22;18342;52.132;21.048;2022-09-29T20:09:09;9.80;99.90
31769;DHT22;18342;52.132;21.048;2022-09-29T20:11:35;9.80;99.90
31769;DHT22;18342;52.132;21.048;2022-09-29T20:14:04;9.80;99.90
31769;DHT22;18342;52.132;21.048;2022-09-29T20:16:35;9.80;99.90
31769;DHT22;18342;52.132;21.048;2022-09-29T20:19:03;9.70;99.90
31769;DHT22;18342;52.132;21.048;2022-09-29T20:21:30;9.70;99.90
31769;DHT22;18342;52.132;21.048;2022-09-29T20:23:56;9.70;99.90
31769;DHT22;18342;52.132;21.048;2022-09-29T20:26:23;9.60;99.90
31769;DHT22;18342;52.132;21.048;2022-09-29T20:28:50;9.60;99.90
31769;DHT22;18342;52.132;21.048;2022-09-29T20:31:20;9.60;99.90
31769;DHT22;18342;52.132;21.048;2022-09-29T20:33:48;9.50;99.90
31769;DHT22;18342;52.132;21.048;2022-09-29T20:36:15;9.50;99.90
31769;DHT22;18342;52.132;21.048;2022-09-29T20:38:43;9.50;99.90
31769;DHT22;18342;52.132;21.048;2022-09-29T20:41:12;9.50;99.90
31769;DHT22;18342;52.132;21.048;2022-09-29T20:43:38;9.50;99.90
31769;DHT22;18342;52.132;21.048;2022-09-29T20:46:07;9.50;99.90
31769;DHT22;18342;52.132;21.048;2022-09-29T20:48:34;9.50;99.90
31769;DHT22;18342;52.132;21.048;2022-09-29T20:51:01;9.50;99.90
31769;DHT22;18342;52.132;21.048;2022-09-29T20:53:29;9.50;99.90
31769;DHT22;18342;52.132;21.048;2022-09-29T20:56:06;9.50;99.90
31769;DHT22;18342;52.132;21.048;2022-09-29T20:58:33;9.40;99.90
31769;DHT22;18342;52.132;21.048;2022-09-29T21:01:31;9.40;99.90
31769;DHT22;18342;52.132;21.048;2022-09-29T21:04:02;9.40;99.90
31769;DHT22;18342;52.132;21.048;2022-09-29T21:06:37;9.40;99.90
31769;DHT22;18342;52.132;21.048;2022-09-29T21:09:06;9.40;99.90
31769;DHT22;18342;52.132;21.048;2022-09-29T21:11:33;9.30;99.90
31769;DHT22;18342;52.132;21.048;2022-09-29T21:14:09;9.30;99.90
31769;DHT22;18342;52.132;21.048;2022-09-29T21:16:36;9.30;99.90
31769;DHT22;18342;52.132;21.048;2022-09-29T21:19:02;9.20;99.90
31769;DHT22;18342;52.132;21.048;2022-09-29T21:21:28;9.20;99.90
31769;DHT22;18342;52.132;21.048;2022-09-29T21:23:54;9.20;99.90
31769;DHT22;18342;52.132;21.048;2022-09-29T21:26:20;9.20;99.90
31769;DHT22;18342;52.132;21.048;2022-09-29T21:28:51;9.20;99.90
31769;DHT22;18342;52.132;21.048;2022-09-29T21:31:18;9.10;99.90
31769;DHT22;18342;52.132;21.048;2022-09-29T21:33:45;9.10;99.90
31769;DHT22;18342;52.132;21.048;2022-09-29T21:36:14;9.10;99.90
31769;DHT22;18342;52.132;21.048;2022-09-29T21:38:43;9.10;99.90
31769;DHT22;18342;52.132;21.048;2022-09-29T21:41:15;9.10;99.90
31769;DHT22;18342;52.132;21.048;2022-09-29T21:43:43;9.10;99.90
31769;DHT22;18342;52.132;21.048;2022-09-29T21:46:12;9.10;99.90
31769;DHT22;18342;52.132;21.048;2022-09-29T21:48:38;9.10;99.90
31769;DHT22;18342;52.132;21.048;2022-09-29T21:51:07;9.10;99.90
31769;DHT22;18342;52.132;21.048;2022-09-29T21:53:34;9.10;99.90
31769;DHT22;18342;52.132;21.048;2022-09-29T21:56:02;9.00;99.90
31769;DHT22;18342;52.132;21.048;2022-09-29T21:58:28;9.10;99.90
31769;DHT22;18342;52.132;21.048;2022-09-29T22:00:54;9.00;99.90
31769;DHT22;18342;52.132;21.048;2022-09-29T22:03:21;9.00;99.90
31769;DHT22;18342;52.132;21.048;2022-09-29T22:05:48;8.90;99.90
31769;DHT22;18342;52.132;21.048;2022-09-29T22:08:14;8.90;99.90
31769;DHT22;18342;52.132;21.048;2022-09-29T22:10:40;8.90;99.90
31769;DHT22;18342;52.132;21.048;2022-09-29T22:13:05;8.90;99.90
31769;DHT22;18342;52.132;21.048;2022-09-29T22:15:32;8.90;99.90
31769;DHT22;18342;52.132;21.048;2022-09-29T22:17:58;8.90;99.90
31769;DHT22;18342;52.132;21.048;2022-09-29T22:20:24;8.90;99.90
31769;DHT22;18342;52.132;21.048;2022-09-29T22:22:50;8.80;99.90
31769;DHT22;18342;52.132;21.048;2022-09-29T22:25:16;8.80;99.90
31769;DHT22;18342;52.132;21.048;2022-09-29T22:27:41;8.80;99.90
31769;DHT22;18342;52.132;21.048;2022-09-29T22:30:08;8.80;99.90
31769;DHT22;18342;52.132;21.048;2022-09-29T22:32:34;8.70;99.90
31769;DHT22;18342;52.132;21.048;2022-09-29T22:35:00;8.80;99.90
31769;DHT22;18342;52.132;21.048;2022-09-29T22:37:25;8.70;99.90
31769;DHT22;18342;52.132;21.048;2022-09-29T22:39:52;8.70;99.90
31769;DHT22;18342;52.132;21.048;2022-09-29T22:42:18;8.70;99.90
31769;DHT22;18342;52.132;21.048;2022-09-29T22:44:44;8.70;99.90
31769;DHT22;18342;52.132;21.048;2022-09-29T22:47:10;8.70;99.90
31769;DHT22;18342;52.132;21.048;2022-09-29T22:49:35;8.70;99.90
31769;DHT22;18342;52.132;21.048;2022-09-29T22:52:01;8.70;99.90
31769;DHT22;18342;52.132;21.048;2022-09-29T22:54:27;8.60;99.90
31769;DHT22;18342;52.132;21.048;2022-09-29T22:56:53;8.60;99.90
31769;DHT22;18342;52.132;21.048;2022-09-29T22:59:20;8.60;99.90
31769;DHT22;18342;52.132;21.048;2022-09-29T23:01:46;8.60;99.90
31769;DHT22;18342;52.132;21.048;2022-09-29T23:04:12;8.50;99.90
31769;DHT22;18342;52.132;21.048;2022-09-29T23:06:38;8.50;99.90
31769;DHT22;18342;52.132;21.048;2022-09-29T23:09:05;8.50;99.90
31769;DHT22;18342;52.132;21.048;2022-09-29T23:11:31;8.50;99.90
31769;DHT22;18342;52.132;21.048;2022-09-29T23:13:59;8.50;99.90
31769;DHT22;18342;52.132;21.048;2022-09-29T23:16:25;8.50;99.90
31769;DHT22;18342;52.132;21.048;2022-09-29T23:18:53;8.50;99.90
31769;DHT22;18342;52.132;21.048;2022-09-29T23:21:19;8.50;99.90
31769;DHT22;18342;52.132;21.048;2022-09-29T23:23:47;8.50;99.90
31769;DHT22;18342;52.132;21.048;2022-09-29T23:26:15;8.50;99.90
31769;DHT22;18342;52.132;21.048;2022-09-29T23:28:42;8.50;99.90
31769;DHT22;18342;52.132;21.048;2022-09-29T23:31:07;8.50;99.90
31769;DHT22;18342;52.132;21.048;2022-09-29T23:33:34;8.50;99.90
31769;DHT22;18342;52.132;21.048;2022-09-29T23:36:18;8.40;99.90
31769;DHT22;18342;52.132;21.048;2022-09-29T23:38:43;8.50;99.90
31769;DHT22;18342;52.132;21.048;2022-09-29T23:41:28;8.40;99.90
31769;DHT22;18342;52.132;21.048;2022-09-29T23:43:56;8.40;99.90
31769;DHT22;18342;52.132;21.048;2022-09-29T23:46:23;8.40;99.90
